createdAt,value
2018-12-08T00:01:49.470Z,5.40
2018-12-08T00:04:18.082Z,5.30
2018-12-08T00:06:46.698Z,5.30
2018-12-08T00:09:15.550Z,5.20
2018-12-08T00:11:44.125Z,5.20
2018-12-08T00:14:12.781Z,5.30
2018-12-08T00:16:42.178Z,5.20
2018-12-08T00:19:10.803Z,5.30
2018-12-08T00:21:39.905Z,5.30
2018-12-08T00:24:09.011Z,5.30
2018-12-08T00:26:37.484Z,5.30
2018-12-08T00:29:06.045Z,5.30
2018-12-08T00:31:45.710Z,5.30
2018-12-08T00:34:14.427Z,5.30
2018-12-08T00:36:44.108Z,5.30
2018-12-08T00:39:12.830Z,5.40
2018-12-08T00:41:41.313Z,5.40
2018-12-08T00:44:09.911Z,5.40
2018-12-08T00:46:38.357Z,5.30
2018-12-08T00:49:07.058Z,5.30
2018-12-08T00:51:35.578Z,5.30
2018-12-08T00:54:07.811Z,5.20
2018-12-08T00:56:36.950Z,5.20
2018-12-08T00:59:05.697Z,5.10
2018-12-08T01:01:34.182Z,5.20
2018-12-08T01:04:02.704Z,5.20
2018-12-08T01:06:31.314Z,5.00
2018-12-08T01:08:59.944Z,4.90
2018-12-08T01:11:28.427Z,4.80
2018-12-08T01:13:56.928Z,4.60
2018-12-08T01:16:25.571Z,4.50
2018-12-08T01:18:54.414Z,4.40
2018-12-08T01:21:22.986Z,4.30
2018-12-08T01:23:51.425Z,4.20
2018-12-08T01:26:20.047Z,4.20
2018-12-08T01:28:48.783Z,4.20
2018-12-08T01:31:17.364Z,4.10
2018-12-08T01:33:45.825Z,4.00
2018-12-08T01:36:15.132Z,4.00
2018-12-08T01:38:43.737Z,3.90
2018-12-08T01:41:12.219Z,3.90
2018-12-08T01:43:41.237Z,3.90
2018-12-08T01:46:09.948Z,3.90
2018-12-08T01:48:38.641Z,3.90
2018-12-08T01:51:07.122Z,3.80
2018-12-08T01:53:35.719Z,3.80
2018-12-08T01:56:04.262Z,3.80
2018-12-08T01:58:32.850Z,3.80
2018-12-08T02:01:01.903Z,3.70
2018-12-08T02:03:30.365Z,3.60
2018-12-08T02:05:58.902Z,3.70
2018-12-08T02:08:27.506Z,3.70
2018-12-08T02:10:55.959Z,3.70
2018-12-08T02:13:24.662Z,3.60
2018-12-08T02:15:53.857Z,3.60
2018-12-08T02:18:22.454Z,3.60
2018-12-08T02:20:51.117Z,3.70
2018-12-08T02:23:19.604Z,3.90
2018-12-08T02:25:48.124Z,3.90
2018-12-08T02:28:16.728Z,3.90
2018-12-08T02:30:45.186Z,3.90
2018-12-08T02:33:13.723Z,3.90
2018-12-08T02:35:43.094Z,3.90
2018-12-08T02:38:11.557Z,3.90
2018-12-08T02:40:40.551Z,3.90
2018-12-08T02:43:09.034Z,3.90
2018-12-08T02:45:37.601Z,3.90
2018-12-08T02:48:06.112Z,3.90
2018-12-08T02:50:34.914Z,4.00
2018-12-08T02:53:03.367Z,4.10
2018-12-08T02:55:32.105Z,4.10
2018-12-08T02:58:00.600Z,4.20
2018-12-08T03:00:29.136Z,4.10
2018-12-08T03:02:57.813Z,4.10
2018-12-08T03:05:26.366Z,4.00
2018-12-08T03:07:54.893Z,3.90
2018-12-08T03:10:23.361Z,3.90
2018-12-08T03:12:51.828Z,3.90
2018-12-08T03:15:20.888Z,3.90
2018-12-08T03:17:49.457Z,3.90
2018-12-08T03:20:18.080Z,3.80
2018-12-08T03:22:46.656Z,3.70
2018-12-08T03:25:15.155Z,3.60
2018-12-08T03:27:45.334Z,3.60
2018-12-08T03:30:13.810Z,3.50
2018-12-08T03:32:43.165Z,3.60
2018-12-08T03:35:11.838Z,3.60
2018-12-08T03:37:40.313Z,3.70
2018-12-08T03:40:08.953Z,3.80
2018-12-08T03:42:37.502Z,3.80
2018-12-08T03:45:06.854Z,3.80
2018-12-08T03:47:35.982Z,3.80
2018-12-08T03:50:06.082Z,3.70
2018-12-08T03:52:34.594Z,3.70
2018-12-08T03:55:03.901Z,3.70
2018-12-08T03:57:33.115Z,3.70
2018-12-08T04:00:01.672Z,3.70
2018-12-08T04:02:30.203Z,3.70
2018-12-08T04:04:58.737Z,3.70
2018-12-08T04:07:27.306Z,3.70
2018-12-08T04:09:55.888Z,3.70
2018-12-08T04:12:24.373Z,3.70
2018-12-08T04:14:53.567Z,3.70
2018-12-08T04:17:22.308Z,3.80
2018-12-08T04:19:51.572Z,3.70
2018-12-08T04:22:20.158Z,3.70
2018-12-08T04:24:48.650Z,3.70
2018-12-08T04:27:17.117Z,3.60
2018-12-08T04:29:45.585Z,3.60
2018-12-08T04:32:14.054Z,3.60
2018-12-08T04:34:42.569Z,3.70
2018-12-08T04:37:11.005Z,3.70
2018-12-08T04:39:39.515Z,3.80
2018-12-08T04:42:08.010Z,3.70
2018-12-08T04:44:43.155Z,3.60
2018-12-08T04:47:11.622Z,3.50
2018-12-08T04:49:40.165Z,3.50
2018-12-08T04:52:09.313Z,3.40
2018-12-08T04:54:38.082Z,3.40
2018-12-08T04:57:06.861Z,3.40
2018-12-08T04:59:35.352Z,3.40
2018-12-08T05:02:04.493Z,3.40
2018-12-08T05:04:33.247Z,3.50
2018-12-08T05:07:01.754Z,3.50
2018-12-08T05:09:30.207Z,3.50
2018-12-08T05:11:59.461Z,3.50
2018-12-08T05:14:27.925Z,3.40
2018-12-08T05:16:56.395Z,3.40
2018-12-08T05:19:24.913Z,3.30
2018-12-08T05:21:53.398Z,3.30
2018-12-08T05:24:21.855Z,3.30
2018-12-08T05:26:50.322Z,3.30
2018-12-08T05:29:18.779Z,3.30
2018-12-08T05:31:47.478Z,3.20
2018-12-08T05:34:15.933Z,3.20
2018-12-08T05:36:44.413Z,3.20
2018-12-08T05:39:12.936Z,3.10
2018-12-08T05:41:41.465Z,3.10
2018-12-08T05:44:10.020Z,3.20
2018-12-08T05:46:39.289Z,3.10
2018-12-08T05:49:09.534Z,3.20
2018-12-08T05:51:38.153Z,3.30
2018-12-08T05:54:06.791Z,3.30
2018-12-08T05:56:35.338Z,3.40
2018-12-08T05:59:03.968Z,3.40
2018-12-08T06:01:32.464Z,3.60
2018-12-08T06:04:01.008Z,3.60
2018-12-08T06:06:29.483Z,3.70
2018-12-08T06:08:58.088Z,3.80
2018-12-08T06:11:26.587Z,3.80
2018-12-08T06:13:55.052Z,3.70
2018-12-08T06:16:23.497Z,3.70
2018-12-08T06:18:52.219Z,3.70
2018-12-08T06:21:32.126Z,3.70
2018-12-08T06:24:00.960Z,3.70
2018-12-08T06:26:29.464Z,3.70
2018-12-08T06:28:59.407Z,3.80
2018-12-08T06:31:27.920Z,3.80
2018-12-08T06:33:56.369Z,3.80
2018-12-08T06:36:24.851Z,3.80
2018-12-08T06:38:53.587Z,3.80
2018-12-08T06:41:22.682Z,3.90
2018-12-08T06:43:51.186Z,3.90
2018-12-08T06:46:19.760Z,3.90
2018-12-08T06:48:48.941Z,4.00
2018-12-08T06:59:50.804Z,4.20
2018-12-08T07:02:19.487Z,4.20
2018-12-08T07:04:48.303Z,4.20
2018-12-08T07:07:17.127Z,4.20
2018-12-08T07:09:45.674Z,4.20
2018-12-08T07:12:14.274Z,4.20
2018-12-08T07:14:42.839Z,4.30
2018-12-08T07:17:11.437Z,4.30
2018-12-08T07:19:40.011Z,4.20
2018-12-08T07:22:08.488Z,4.30
2018-12-08T07:24:37.791Z,4.30
2018-12-08T07:27:06.757Z,4.20
2018-12-08T07:29:35.423Z,4.30
2018-12-08T07:32:04.039Z,4.30
2018-12-08T07:34:33.294Z,4.30
2018-12-08T07:37:01.826Z,4.30
2018-12-08T07:39:30.979Z,4.40
2018-12-08T07:41:59.453Z,4.40
2018-12-08T07:44:27.999Z,4.50
2018-12-08T07:46:56.558Z,4.50
2018-12-08T07:49:25.145Z,4.50
2018-12-08T07:51:53.783Z,4.60
2018-12-08T07:54:23.371Z,4.60
2018-12-08T07:56:52.681Z,4.60
2018-12-08T07:59:22.391Z,4.60
2018-12-08T08:01:51.286Z,4.60
2018-12-08T08:04:20.589Z,4.60
2018-12-08T08:06:49.420Z,4.60
2018-12-08T08:09:18.310Z,4.60
2018-12-08T08:11:47.029Z,4.70
2018-12-08T08:14:15.959Z,4.70
2018-12-08T08:16:44.673Z,4.60
2018-12-08T08:19:13.191Z,4.60
2018-12-08T08:21:41.780Z,4.60
2018-12-08T08:24:10.446Z,4.60
2018-12-08T08:26:39.323Z,4.60
2018-12-08T08:29:07.807Z,4.60
2018-12-08T08:31:36.416Z,4.70
2018-12-08T08:34:06.009Z,4.70
2018-12-08T08:36:34.784Z,4.70
2018-12-08T08:39:04.547Z,4.80
2018-12-08T08:41:33.198Z,4.90
2018-12-08T08:44:01.799Z,4.90
2018-12-08T08:46:30.381Z,4.90
2018-12-08T08:48:59.078Z,5.00
2018-12-08T08:51:27.910Z,4.90
2018-12-08T08:53:56.571Z,4.90
2018-12-08T08:56:25.407Z,4.90
2018-12-08T08:58:55.204Z,4.90
2018-12-08T09:01:24.284Z,4.80
2018-12-08T09:03:53.180Z,4.90
2018-12-08T09:06:21.898Z,4.90
2018-12-08T09:08:50.553Z,5.00
2018-12-08T09:11:19.114Z,4.90
2018-12-08T09:13:47.632Z,5.00
2018-12-08T09:16:16.249Z,5.10
2018-12-08T09:18:44.782Z,5.10
2018-12-08T09:21:13.625Z,5.00
2018-12-08T09:23:42.148Z,5.10
2018-12-08T09:26:10.808Z,5.20
2018-12-08T09:28:39.333Z,5.20
2018-12-08T09:31:08.828Z,5.30
2018-12-08T09:33:37.408Z,5.20
2018-12-08T09:36:06.005Z,5.30
2018-12-08T09:38:34.623Z,5.30
2018-12-08T09:41:03.221Z,5.30
2018-12-08T09:43:32.079Z,5.30
2018-12-08T09:46:00.607Z,5.40
2018-12-08T09:48:29.314Z,5.40
2018-12-08T09:50:57.821Z,5.50
2018-12-08T09:53:26.434Z,5.50
2018-12-08T09:55:54.970Z,5.40
2018-12-08T09:58:23.513Z,5.50
2018-12-08T10:00:52.089Z,5.50
2018-12-08T10:03:20.638Z,5.50
2018-12-08T10:05:49.233Z,5.50
2018-12-08T10:08:17.821Z,5.40
2018-12-08T10:10:46.360Z,5.40
2018-12-08T10:13:15.533Z,5.50
2018-12-08T10:15:44.256Z,5.50
2018-12-08T10:18:12.849Z,5.40
2018-12-08T10:20:41.389Z,5.40
2018-12-08T10:23:09.935Z,5.30
2018-12-08T10:25:38.440Z,5.30
2018-12-08T10:28:07.139Z,5.40
2018-12-08T10:30:35.988Z,5.30
2018-12-08T10:33:04.787Z,5.40
2018-12-08T10:35:35.276Z,5.40
2018-12-08T10:38:05.011Z,5.50
2018-12-08T10:40:33.883Z,5.50
2018-12-08T10:43:02.526Z,5.40
2018-12-08T10:45:31.034Z,5.40
2018-12-08T10:47:59.596Z,5.40
2018-12-08T10:50:28.239Z,5.40
2018-12-08T10:52:56.786Z,5.40
2018-12-08T10:55:25.410Z,5.40
2018-12-08T10:57:54.545Z,5.50
2018-12-08T11:00:28.398Z,5.50
2018-12-08T11:03:01.198Z,5.60
2018-12-08T11:05:29.981Z,5.60
2018-12-08T11:07:58.525Z,5.60
2018-12-08T11:10:27.124Z,5.60
2018-12-08T11:12:55.718Z,5.60
2018-12-08T11:15:24.313Z,5.60
2018-12-08T11:17:52.846Z,5.60
2018-12-08T11:20:21.469Z,5.50
2018-12-08T11:22:49.997Z,5.60
2018-12-08T11:25:18.625Z,5.70
2018-12-08T11:27:47.166Z,5.90
2018-12-08T11:30:15.753Z,5.90
2018-12-08T11:32:44.284Z,5.80
2018-12-08T11:35:12.883Z,5.80
2018-12-08T11:37:42.024Z,5.90
2018-12-08T11:40:10.608Z,6.00
2018-12-08T11:42:39.778Z,6.00
2018-12-08T11:45:08.526Z,6.10
2018-12-08T11:47:37.133Z,6.10
2018-12-08T11:50:06.150Z,6.10
2018-12-08T11:52:34.736Z,6.10
2018-12-08T11:55:03.290Z,6.30
2018-12-08T11:57:31.878Z,6.10
2018-12-08T12:00:00.435Z,6.20
2018-12-08T12:02:29.144Z,6.20
2018-12-08T12:04:58.532Z,6.30
2018-12-08T12:07:27.236Z,6.40
2018-12-08T12:09:55.862Z,6.60
2018-12-08T12:12:24.672Z,6.60
2018-12-08T12:14:53.239Z,6.60
2018-12-08T12:17:21.864Z,6.70
2018-12-08T12:19:50.471Z,6.60
2018-12-08T12:22:18.959Z,6.60
2018-12-08T12:24:48.400Z,6.40
2018-12-08T12:27:17.080Z,6.40
2018-12-08T12:29:46.254Z,6.40
2018-12-08T12:32:14.949Z,6.30
2018-12-08T12:34:43.638Z,6.20
2018-12-08T12:37:12.287Z,6.20
2018-12-08T12:39:40.917Z,6.10
2018-12-08T12:42:10.190Z,6.10
2018-12-08T12:44:39.129Z,6.00
2018-12-08T12:47:07.776Z,6.00
2018-12-08T12:49:37.011Z,5.90
2018-12-08T12:52:05.994Z,5.90
2018-12-08T12:54:34.651Z,5.90
2018-12-08T12:57:03.363Z,5.90
2018-12-08T12:59:32.671Z,6.10
2018-12-08T13:02:01.434Z,6.10
2018-12-08T13:04:30.100Z,6.10
2018-12-08T13:06:58.655Z,6.00
2018-12-08T13:09:27.233Z,5.90
2018-12-08T13:11:56.272Z,5.90
2018-12-08T13:14:24.859Z,5.80
2018-12-08T13:16:53.476Z,5.70
2018-12-08T13:19:22.172Z,5.80
2018-12-08T13:21:51.979Z,5.80
2018-12-08T13:24:20.730Z,5.80
2018-12-08T13:26:49.684Z,5.90
2018-12-08T13:29:18.515Z,5.90
2018-12-08T13:31:47.137Z,6.00
2018-12-08T13:34:25.814Z,6.00
2018-12-08T13:36:54.514Z,6.00
2018-12-08T13:39:23.769Z,5.90
2018-12-08T13:41:52.881Z,5.80
2018-12-08T13:44:35.030Z,5.80
2018-12-08T13:47:04.874Z,5.80
2018-12-08T13:49:33.741Z,5.80
2018-12-08T13:52:02.496Z,5.80
2018-12-08T13:54:42.358Z,5.80
2018-12-08T13:57:11.034Z,5.80
2018-12-08T13:59:39.687Z,5.90
2018-12-08T14:02:09.278Z,5.80
2018-12-08T14:04:37.972Z,5.80
2018-12-08T14:07:06.767Z,5.80
2018-12-08T14:09:36.090Z,5.80
2018-12-08T14:12:04.660Z,5.80
2018-12-08T14:14:33.339Z,5.90
2018-12-08T14:17:01.917Z,5.80
2018-12-08T14:19:31.312Z,5.90
2018-12-08T14:22:00.733Z,5.90
2018-12-08T14:24:29.802Z,5.90
2018-12-08T14:26:58.976Z,5.90
2018-12-08T14:29:27.851Z,5.90
2018-12-08T14:31:57.575Z,5.90
2018-12-08T14:34:26.898Z,5.90
2018-12-08T14:36:56.228Z,6.00
2018-12-08T14:39:25.317Z,5.90
2018-12-08T14:41:54.418Z,5.90
2018-12-08T14:44:23.560Z,5.80
2018-12-08T14:46:52.712Z,5.80
2018-12-08T14:49:21.773Z,5.80
2018-12-08T14:51:51.342Z,5.80
2018-12-08T14:54:20.665Z,5.80
2018-12-08T14:56:49.825Z,5.80
2018-12-08T14:59:19.195Z,5.80
2018-12-08T15:01:48.333Z,5.90
2018-12-08T15:04:17.681Z,5.90
2018-12-08T15:06:46.768Z,5.90
2018-12-08T15:09:15.895Z,5.80
2018-12-08T15:11:45.312Z,5.80
2018-12-08T15:14:14.625Z,5.80
2018-12-08T15:16:44.535Z,5.90
2018-12-08T15:19:13.848Z,5.90
2018-12-08T15:21:42.759Z,5.80
2018-12-08T15:24:11.435Z,5.80
2018-12-08T15:26:40.187Z,5.70
2018-12-08T15:29:08.699Z,5.80
2018-12-08T15:31:37.285Z,5.80
2018-12-08T15:34:05.984Z,5.80
2018-12-08T15:36:34.647Z,5.80
2018-12-08T15:39:04.504Z,5.70
2018-12-08T15:41:33.247Z,5.70
2018-12-08T15:44:01.964Z,5.70
2018-12-08T15:46:30.884Z,5.80
2018-12-08T15:48:59.496Z,5.80
2018-12-08T15:51:28.769Z,5.70
2018-12-08T15:53:59.298Z,5.70
2018-12-08T15:56:27.822Z,5.70
2018-12-08T15:58:57.465Z,5.70
2018-12-08T16:01:26.109Z,5.70
2018-12-08T16:03:55.097Z,5.70
2018-12-08T16:06:23.689Z,5.60
2018-12-08T16:08:52.396Z,5.70
2018-12-08T16:11:21.080Z,5.70
2018-12-08T16:13:49.691Z,5.80
2018-12-08T16:16:18.305Z,5.70
2018-12-08T16:18:46.880Z,5.80
2018-12-08T16:21:16.994Z,5.70
2018-12-08T16:23:45.872Z,5.80
2018-12-08T16:26:14.714Z,5.70
2018-12-08T16:28:43.470Z,5.80
2018-12-08T16:31:12.278Z,5.70
2018-12-08T16:33:41.448Z,5.80
2018-12-08T16:36:10.065Z,5.70
2018-12-08T16:38:38.759Z,5.70
2018-12-08T16:41:08.230Z,5.70
2018-12-08T16:43:36.938Z,5.70
2018-12-08T16:46:06.387Z,5.70
2018-12-08T16:48:34.987Z,5.70
2018-12-08T16:51:03.622Z,5.70
2018-12-08T16:53:32.328Z,5.70
2018-12-08T16:56:01.392Z,5.70
2018-12-08T16:58:29.997Z,5.70
2018-12-08T17:00:59.043Z,5.70
2018-12-08T17:03:28.500Z,5.70
2018-12-08T17:05:57.164Z,5.60
2018-12-08T17:08:25.845Z,5.60
2018-12-08T17:10:54.621Z,5.60
2018-12-08T17:13:23.270Z,5.60
2018-12-08T17:15:52.012Z,5.60
2018-12-08T17:18:20.640Z,5.60
2018-12-08T17:20:49.380Z,5.60
2018-12-08T17:23:18.136Z,5.60
2018-12-08T17:25:47.044Z,5.60
2018-12-08T17:28:15.852Z,5.70
2018-12-08T17:30:44.675Z,5.70
2018-12-08T17:33:13.454Z,5.70
2018-12-08T17:35:42.347Z,5.70
2018-12-08T17:38:11.130Z,5.80
2018-12-08T17:40:39.886Z,5.80
2018-12-08T17:43:08.686Z,5.80
2018-12-08T17:45:37.810Z,5.80
2018-12-08T17:48:06.463Z,5.80
2018-12-08T17:50:35.036Z,5.80
2018-12-08T17:53:03.902Z,5.80
2018-12-08T17:55:32.515Z,5.80
2018-12-08T17:58:01.296Z,5.80
2018-12-08T18:00:30.688Z,5.80
2018-12-08T18:02:59.453Z,5.80
2018-12-08T18:05:28.974Z,5.80
2018-12-08T18:07:58.546Z,5.80
2018-12-08T18:10:27.529Z,5.80
2018-12-08T18:12:56.625Z,5.80
2018-12-08T18:15:25.492Z,5.70
2018-12-08T18:17:54.322Z,5.60
2018-12-08T18:20:23.820Z,5.70
2018-12-08T18:22:52.701Z,5.70
2018-12-08T18:25:21.917Z,5.70
2018-12-08T18:27:50.873Z,5.60
2018-12-08T18:30:19.901Z,5.60
2018-12-08T18:32:49.513Z,5.50
2018-12-08T18:35:18.309Z,5.60
2018-12-08T18:37:47.805Z,5.60
2018-12-08T18:40:17.281Z,5.60
2018-12-08T18:42:46.038Z,5.60
2018-12-08T18:45:14.763Z,5.60
2018-12-08T18:47:43.406Z,5.70
2018-12-08T18:50:12.194Z,5.70
2018-12-08T18:52:40.785Z,5.70
2018-12-08T18:55:09.812Z,5.70
2018-12-08T18:57:38.489Z,5.70
2018-12-08T19:00:10.956Z,5.70
2018-12-08T19:02:39.812Z,5.60
2018-12-08T19:05:09.114Z,5.60
2018-12-08T19:07:37.853Z,5.70
2018-12-08T19:10:07.206Z,5.70
2018-12-08T19:12:36.113Z,5.70
2018-12-08T19:15:05.877Z,5.70
2018-12-08T19:17:34.676Z,5.70
2018-12-08T19:20:03.515Z,5.70
2018-12-08T19:22:32.966Z,5.70
2018-12-08T19:25:02.297Z,5.70
2018-12-08T19:27:31.124Z,5.70
2018-12-08T19:29:59.968Z,5.70
2018-12-08T19:32:28.635Z,5.70
2018-12-08T19:34:57.268Z,5.70
2018-12-08T19:37:26.446Z,5.70
2018-12-08T19:39:55.042Z,5.70
2018-12-08T19:42:23.612Z,5.70
2018-12-08T19:44:53.203Z,5.70
2018-12-08T19:47:22.442Z,5.70
2018-12-08T19:49:51.150Z,5.80
2018-12-08T19:52:19.847Z,5.80
2018-12-08T19:54:48.779Z,5.80
2018-12-08T19:57:17.611Z,5.80
2018-12-08T19:59:46.403Z,5.80
2018-12-08T20:02:15.742Z,5.80
2018-12-08T20:04:44.667Z,5.80
2018-12-08T20:07:13.753Z,5.90
2018-12-08T20:09:42.578Z,5.90
2018-12-08T20:12:11.334Z,5.90
2018-12-08T20:14:40.027Z,5.90
2018-12-08T20:17:08.814Z,5.90
2018-12-08T20:19:37.467Z,5.90
2018-12-08T20:22:06.088Z,5.90
2018-12-08T20:24:34.812Z,5.90
2018-12-08T20:27:03.451Z,5.90
2018-12-08T20:29:32.159Z,5.90
2018-12-08T20:32:00.833Z,5.90
2018-12-08T20:34:29.448Z,6.00
2018-12-08T20:36:58.074Z,6.00
2018-12-08T20:39:26.804Z,6.00
2018-12-08T20:41:55.497Z,6.00
2018-12-08T20:44:24.781Z,6.00
2018-12-08T20:46:53.485Z,6.00
2018-12-08T20:49:22.120Z,6.00
2018-12-08T20:51:50.850Z,6.00
2018-12-08T20:54:20.551Z,6.00
2018-12-08T20:56:49.149Z,6.10
2018-12-08T20:59:17.926Z,6.10
2018-12-08T21:01:47.240Z,6.20
2018-12-08T21:04:16.677Z,6.10
2018-12-08T21:06:45.435Z,6.20
2018-12-08T21:09:14.041Z,6.20
2018-12-08T21:11:42.638Z,6.20
2018-12-08T21:14:11.347Z,6.20
2018-12-08T21:16:39.931Z,6.20
2018-12-08T21:19:08.593Z,6.30
2018-12-08T21:21:37.219Z,6.30
2018-12-08T21:24:05.773Z,6.30
2018-12-08T21:26:34.554Z,6.40
2018-12-08T21:29:03.195Z,6.40
2018-12-08T21:31:32.019Z,6.40
2018-12-08T21:34:00.648Z,6.40
2018-12-08T21:36:29.512Z,6.40
2018-12-08T21:38:58.326Z,6.50
2018-12-08T21:41:27.590Z,6.50
2018-12-08T21:43:56.133Z,6.50
2018-12-08T21:46:25.141Z,6.50
2018-12-08T21:48:53.714Z,6.50
2018-12-08T21:51:22.675Z,6.50
2018-12-08T21:53:51.327Z,6.50
2018-12-08T21:56:20.476Z,6.60
2018-12-08T21:58:49.062Z,6.60
2018-12-08T22:01:17.562Z,6.60
2018-12-08T22:03:46.129Z,6.60
2018-12-08T22:06:14.746Z,6.60
2018-12-08T22:08:43.293Z,6.60
2018-12-08T22:11:12.036Z,6.60
2018-12-08T22:13:41.134Z,6.60
2018-12-08T22:16:10.357Z,6.70
2018-12-08T22:18:38.986Z,6.70
2018-12-08T22:21:07.724Z,6.60
2018-12-08T22:23:36.236Z,6.70
2018-12-08T22:26:05.432Z,6.70
2018-12-08T22:28:34.263Z,6.70
2018-12-08T22:31:02.876Z,6.70
2018-12-08T22:33:32.148Z,6.70
2018-12-08T22:36:00.766Z,6.80
2018-12-08T22:38:30.410Z,6.80
2018-12-08T22:40:59.052Z,6.80
2018-12-08T22:43:28.165Z,6.80
2018-12-08T22:45:57.029Z,6.90
2018-12-08T22:48:25.609Z,6.90
2018-12-08T22:50:54.147Z,6.80
2018-12-08T22:53:22.752Z,6.90
2018-12-08T22:55:54.989Z,6.90
2018-12-08T22:58:23.857Z,7.00
2018-12-08T23:00:53.380Z,7.10
2018-12-08T23:03:22.202Z,7.10
2018-12-08T23:05:50.756Z,7.10
2018-12-08T23:08:21.182Z,7.10
2018-12-08T23:10:50.404Z,7.20
2018-12-08T23:13:19.294Z,7.20
2018-12-08T23:15:47.968Z,7.30
2018-12-08T23:18:16.499Z,7.40
2018-12-08T23:20:45.178Z,7.30
2018-12-08T23:23:13.776Z,7.30
2018-12-08T23:25:42.317Z,7.30
2018-12-08T23:28:10.846Z,7.30
2018-12-08T23:30:40.153Z,7.20
2018-12-08T23:33:08.689Z,7.30
2018-12-08T23:35:37.228Z,7.30
2018-12-08T23:38:05.875Z,7.30
2018-12-08T23:40:34.966Z,7.40
2018-12-08T23:43:03.507Z,7.40
2018-12-08T23:45:32.313Z,7.40
2018-12-08T23:48:01.128Z,7.50
2018-12-08T23:50:29.665Z,7.50
2018-12-08T23:52:58.165Z,7.50
2018-12-08T23:55:26.645Z,7.50
2018-12-08T23:57:55.208Z,7.40
